Time;durP1;ratioP1;P1;durP2;ratioP2;P2;SDS_P1;SDS_P2;PMS_P1;PMS_P2;Temp;Humidity;BMP_temperature;BMP_pressure;BME280_temperature;BME280_humidity;BME280_pressure;Samples;Min_cycle;Max_cycle;Signal;HPM_P1;HPM_P2
2023/06/01 00:01:07;;;;;;;2.35;0.35;;;;;;;16.29;100.00;102350.41;10453616;28;20552;-80
2023/06/01 00:06:08;;;;;;;0.43;0.22;;;;;;;16.02;100.00;102348.84;10447044;28;20053;-81
2023/06/01 00:11:10;;;;;;;1.35;0.57;;;;;;;15.54;100.00;102350.97;10441433;28;20075;-80
2023/06/01 00:16:12;;;;;;;0.47;0.30;;;;;;;15.96;100.00;102343.50;10462572;28;20044;-81
2023/06/01 00:21:14;;;;;;;1.17;0.35;;;;;;;16.03;100.00;102348.03;10442780;28;20762;-79
2023/06/01 00:26:16;;;;;;;2.55;1.17;;;;;;;15.97;100.00;102334.88;10456509;28;20041;-80
2023/06/01 00:31:23;;;;;;;0.57;0.25;;;;;;;15.49;100.00;102337.00;10451283;28;20069;-81
2023/06/01 00:36:25;;;;;;;0.30;0.20;;;;;;;15.68;100.00;102335.81;10475006;28;20049;-80
2023/06/01 00:41:28;;;;;;;0.85;0.52;;;;;;;16.04;100.00;102342.00;10454992;28;20711;-80
2023/06/01 00:46:30;;;;;;;0.90;0.35;;;;;;;15.70;100.00;102341.03;10459178;28;20055;-80
2023/06/01 00:51:32;;;;;;;0.60;0.60;;;;;;;16.03;100.00;102335.03;10443877;28;20044;-80
2023/06/01 00:56:36;;;;;;;0.25;0.25;;;;;;;16.26;100.00;102343.41;10440962;28;20049;-81
2023/06/01 01:01:37;;;;;;;2.13;1.00;;;;;;;15.74;100.00;102342.88;10468379;28;20049;-81
2023/06/01 01:07:01;;;;;;;0.17;0.15;;;;;;;15.75;100.00;102339.44;10470259;28;20094;-82
2023/06/01 01:12:21;;;;;;;1.27;0.68;;;;;;;15.97;100.00;102347.88;10441165;28;20484;-80
2023/06/01 01:17:38;;;;;;;0.28;0.20;;;;;;;15.83;100.00;102350.94;10449868;28;20532;-81
2023/06/01 01:22:57;;;;;;;0.90;0.40;;;;;;;16.56;100.00;102346.75;10438066;28;20127;-80
2023/06/01 01:28:05;;;;;;;2.25;0.60;;;;;;;16.20;100.00;102353.66;10472006;28;20558;-81
2023/06/01 01:33:08;;;;;;;0.25;0.25;;;;;;;16.06;100.00;102350.69;10428359;28;20083;-79
2023/06/01 01:38:10;;;;;;;0.20;0.20;;;;;;;15.82;100.00;102346.56;10472205;28;20049;-81
2023/06/01 01:43:12;;;;;;;3.70;1.23;;;;;;;16.39;100.00;102339.41;10446310;28;20037;-79
2023/06/01 01:48:22;;;;;;;1.52;0.65;;;;;;;15.82;100.00;102341.34;10427552;28;20053;-79
2023/06/01 01:53:26;;;;;;;0.52;0.52;;;;;;;15.57;100.00;102338.94;10455675;28;20451;-81
2023/06/01 01:58:28;;;;;;;0.63;0.40;;;;;;;15.94;100.00;102334.78;10458578;28;20068;-81
2023/06/01 02:03:30;;;;;;;0.80;0.25;;;;;;;15.55;100.00;102344.09;10446909;28;20053;-81
2023/06/01 02:08:32;;;;;;;0.57;0.57;;;;;;;15.57;100.00;102344.13;10452062;28;20567;-82
2023/06/01 02:13:34;;;;;;;1.42;1.15;;;;;;;15.75;100.00;102339.44;10441259;28;20045;-80
2023/06/01 02:18:39;;;;;;;0.75;0.47;;;;;;;15.80;100.00;102337.84;10455195;28;20037;-79
2023/06/01 02:23:42;;;;;;;0.25;0.20;;;;;;;16.06;100.00;102345.50;10454033;28;20044;-79
2023/06/01 02:28:44;;;;;;;1.08;0.82;;;;;;;15.97;100.00;102340.06;10454342;28;20045;-80
2023/06/01 02:33:45;;;;;;;0.30;0.30;;;;;;;16.09;100.00;102339.47;10439253;28;20053;-80
2023/06/01 02:38:47;;;;;;;0.38;0.17;;;;;;;16.45;100.00;102334.34;10439619;28;20041;-80
2023/06/01 02:43:52;;;;;;;1.42;0.73;;;;;;;16.85;100.00;102328.31;10450287;28;20125;-80
2023/06/01 02:48:53;;;;;;;1.75;0.88;;;;;;;16.55;100.00;102325.03;10443716;28;20077;-80
2023/06/01 02:53:55;;;;;;;0.43;0.30;;;;;;;16.54;100.00;102335.41;10453346;28;20041;-81
2023/06/01 02:58:57;;;;;;;0.60;0.20;;;;;;;16.28;100.00;102336.53;10453272;28;20518;-82
2023/06/01 03:04:07;;;;;;;0.60;0.43;;;;;;;16.46;100.00;102330.91;10449232;28;20049;-79
2023/06/01 03:09:15;;;;;;;1.05;0.40;;;;;;;16.33;100.00;102331.44;10465790;28;20068;-80
2023/06/01 03:14:40;;;;;;;0.28;0.28;;;;;;;16.39;100.00;102328.09;10420511;28;20134;-81
2023/06/01 03:19:42;;;;;;;0.47;0.30;;;;;;;16.91;100.00;102324.13;10424529;28;20041;-81
2023/06/01 03:24:54;;;;;;;1.75;0.50;;;;;;;16.27;100.00;102328.69;10440163;28;20539;-81
2023/06/01 03:30:02;;;;;;;0.77;0.52;;;;;;;16.25;100.00;102327.78;10446212;28;20051;-80
2023/06/01 03:35:07;;;;;;;1.92;0.85;;;;;;;16.36;100.00;102328.91;10456657;28;20041;-78
2023/06/01 03:40:11;;;;;;;0.30;0.30;;;;;;;16.01;100.00;102328.91;10443881;28;20061;-80
2023/06/01 03:45:18;;;;;;;0.68;0.38;;;;;;;16.56;100.00;102319.00;10450822;28;20397;-80
2023/06/01 03:50:20;;;;;;;0.63;0.63;;;;;;;15.68;100.00;102319.31;10459999;28;20049;-81
2023/06/01 03:55:25;;;;;;;0.93;0.52;;;;;;;16.26;100.00;102321.75;10458468;28;20056;-80
2023/06/01 04:00:50;;;;;;;0.45;0.45;;;;;;;16.31;100.00;102314.91;10454924;28;20136;-81
2023/06/01 04:05:58;;;;;;;0.28;0.10;;;;;;;16.37;100.00;102320.25;10473318;28;20071;-82
2023/06/01 04:11:00;;;;;;;0.88;0.52;;;;;;;17.03;100.00;102310.53;10442378;28;20051;-80
2023/06/01 04:16:02;;;;;;;0.90;0.40;;;;;;;16.36;100.00;102308.09;10465066;28;20411;-78
2023/06/01 04:21:06;;;;;;;1.08;0.17;;;;;;;17.07;100.00;102304.56;10456131;28;20045;-80
2023/06/01 04:26:11;;;;;;;1.10;0.82;;;;;;;16.89;100.00;102307.59;10458814;28;20458;-81
2023/06/01 04:31:19;;;;;;;0.80;0.47;;;;;;;17.12;100.00;102308.13;10449702;28;20048;-80
2023/06/01 04:36:23;;;;;;;1.47;0.50;;;;;;;17.63;100.00;102310.88;10462121;28;20041;-80
2023/06/01 04:41:30;;;;;;;0.45;0.40;;;;;;;17.00;100.00;102318.28;10450588;28;20140;-80
2023/06/01 04:46:32;;;;;;;0.43;0.43;;;;;;;17.11;100.00;102316.78;10456773;28;20081;-79
2023/06/01 04:51:36;;;;;;;0.43;0.43;;;;;;;16.35;100.00;102327.16;10444748;28;20484;-81
2023/06/01 04:56:38;;;;;;;1.40;0.35;;;;;;;16.89;100.00;102322.31;10449909;28;20079;-80
2023/06/01 05:01:40;;;;;;;0.30;0.30;;;;;;;17.36;100.00;102327.72;10463859;28;20041;-81
2023/06/01 05:06:43;;;;;;;0.52;0.30;;;;;;;17.10;100.00;102335.84;10448170;28;20044;-81
2023/06/01 05:11:45;;;;;;;1.67;0.65;;;;;;;17.37;100.00;102334.69;10462165;28;20496;-79
2023/06/01 05:16:48;;;;;;;0.43;0.28;;;;;;;17.74;100.00;102325.00;10458509;28;20088;-79
2023/06/01 05:21:51;;;;;;;1.40;0.80;;;;;;;17.68;100.00;102324.00;10472833;28;20083;-79
2023/06/01 05:26:53;;;;;;;0.50;0.50;;;;;;;17.01;100.00;102319.16;10450495;28;20080;-80
2023/06/01 05:31:55;;;;;;;0.00;0.00;;;;;;;16.94;100.00;102324.22;10466412;28;20128;-81
2023/06/01 05:36:58;;;;;;;0.70;0.60;;;;;;;16.87;100.00;102321.41;10464245;28;20055;-81
2023/06/01 05:42:00;;;;;;;3.60;2.17;;;;;;;16.54;100.00;102338.00;10455439;28;20432;-81
2023/06/01 05:47:09;;;;;;;1.95;0.55;;;;;;;16.55;100.00;102339.78;10458460;28;20056;-81
2023/06/01 05:52:13;;;;;;;0.90;0.63;;;;;;;16.80;100.00;102334.28;10454505;28;20067;-81
2023/06/01 05:57:16;;;;;;;3.95;0.70;;;;;;;16.60;100.00;102336.44;10439769;28;20491;-79
2023/06/01 06:02:19;;;;;;;1.35;0.77;;;;;;;17.61;100.00;102330.78;10457169;28;20049;-82
2023/06/01 06:07:21;;;;;;;0.47;0.47;;;;;;;17.17;100.00;102330.78;10448478;28;20048;-82
2023/06/01 06:12:22;;;;;;;1.55;0.93;;;;;;;18.10;100.00;102322.16;10435085;28;20048;-82
2023/06/01 06:17:24;;;;;;;0.28;0.28;;;;;;;18.29;100.00;102324.22;10448897;28;20053;-82
2023/06/01 06:22:26;;;;;;;0.32;0.32;;;;;;;18.16;100.00;102335.31;10441553;28;20087;-83
2023/06/01 06:27:27;;;;;;;0.10;0.10;;;;;;;18.02;100.00;102338.56;10446852;28;20055;-82
2023/06/01 06:32:29;;;;;;;1.85;0.65;;;;;;;17.48;100.00;102331.41;10458925;28;20063;-82
2023/06/01 06:37:31;;;;;;;1.08;0.50;;;;;;;17.47;100.00;102334.84;10449753;28;20059;-82
2023/06/01 06:42:33;;;;;;;1.48;0.68;;;;;;;17.32;100.00;102344.13;10443373;28;20060;-81
2023/06/01 06:47:34;;;;;;;0.75;0.65;;;;;;;17.89;100.00;102354.81;10447457;28;21062;-82
2023/06/01 06:52:36;;;;;;;0.30;0.30;;;;;;;17.74;100.00;102345.84;10452451;28;20091;-80
2023/06/01 06:57:39;;;;;;;1.83;0.93;;;;;;;17.48;100.00;102344.44;10450501;28;20047;-82
2023/06/01 07:02:45;;;;;;;0.45;0.40;;;;;;;17.71;100.00;102340.56;10442208;28;20411;-82
2023/06/01 07:07:46;;;;;;;0.45;0.30;;;;;;;17.84;100.00;102346.00;10452801;28;20052;-81
2023/06/01 07:12:48;;;;;;;0.93;0.80;;;;;;;18.54;100.00;102342.91;10480647;28;20045;-81
2023/06/01 07:17:50;;;;;;;0.88;0.57;;;;;;;18.51;100.00;102346.34;10443719;28;20123;-82
2023/06/01 07:22:51;;;;;;;0.60;0.32;;;;;;;19.05;100.00;102337.56;10438915;28;20132;-83
2023/06/01 07:27:55;;;;;;;1.10;0.50;;;;;;;19.39;100.00;102343.25;10449587;28;20049;-82
2023/06/01 07:32:57;;;;;;;1.98;0.85;;;;;;;19.51;99.69;102338.16;10466758;28;20052;-83
2023/06/01 07:37:59;;;;;;;1.33;0.60;;;;;;;18.76;100.00;102335.38;10468151;28;20049;-83
2023/06/01 07:43:01;;;;;;;0.20;0.20;;;;;;;20.45;100.00;102330.34;10448360;28;20059;-82
2023/06/01 07:48:03;;;;;;;0.45;0.30;;;;;;;20.67;94.71;102333.09;10452485;28;20080;-82
2023/06/01 07:53:05;;;;;;;3.25;0.35;;;;;;;20.64;93.92;102335.72;10459740;28;20069;-84
2023/06/01 07:58:07;;;;;;;0.57;0.52;;;;;;;20.21;93.10;102339.78;10452746;28;20067;-82
2023/06/01 08:03:09;;;;;;;1.00;0.63;;;;;;;19.96;92.72;102333.41;10441015;28;20496;-83
2023/06/01 08:08:10;;;;;;;2.75;0.70;;;;;;;20.35;93.22;102328.53;10464918;28;20127;-82
2023/06/01 08:13:13;;;;;;;0.77;0.50;;;;;;;20.83;93.27;102315.78;10433120;28;20049;-83
2023/06/01 08:18:15;;;;;;;0.50;0.40;;;;;;;20.82;91.35;102320.13;10454573;28;20147;-82
2023/06/01 08:23:16;;;;;;;1.65;0.47;;;;;;;20.89;88.71;102321.91;10454950;28;20052;-82
2023/06/01 08:28:18;;;;;;;2.63;1.08;;;;;;;21.79;86.57;102318.78;10434609;28;20057;-83
2023/06/01 08:33:20;;;;;;;0.50;0.40;;;;;;;20.92;89.01;102311.47;10432175;28;20036;-84
2023/06/01 08:38:21;;;;;;;3.35;0.88;;;;;;;21.79;86.04;102306.53;10453602;28;20555;-84
2023/06/01 08:43:31;;;;;;;0.50;0.50;;;;;;;22.98;86.03;102292.41;10431333;28;20529;-83
2023/06/01 08:48:34;;;;;;;1.20;0.20;;;;;;;22.82;83.62;102302.09;10453765;28;20444;-82
2023/06/01 08:53:40;;;;;;;0.60;0.38;;;;;;;21.44;86.27;102299.44;10453012;28;20510;-84
2023/06/01 08:58:43;;;;;;;1.23;0.57;;;;;;;22.62;82.65;102294.28;10450676;28;20055;-83
2023/06/01 09:03:45;;;;;;;0.73;0.28;;;;;;;22.88;82.19;102281.06;10454183;28;20061;-83
2023/06/01 09:08:47;;;;;;;0.00;0.00;;;;;;;22.70;82.93;102282.00;10443351;28;20045;-83
2023/06/01 09:13:49;;;;;;;0.38;0.30;;;;;;;23.30;82.97;102273.00;10436913;28;20049;-82
2023/06/01 09:18:52;;;;;;;0.80;0.38;;;;;;;22.37;85.31;102278.56;10443999;28;20037;-83
2023/06/01 09:23:54;;;;;;;1.55;0.45;;;;;;;22.84;85.05;102273.19;10432830;28;20051;-82
2023/06/01 09:29:00;;;;;;;0.22;0.10;;;;;;;20.80;88.98;102272.13;10461548;28;20067;-84
2023/06/01 09:34:02;;;;;;;0.00;0.00;;;;;;;23.52;83.35;102263.25;10449474;28;20037;-84
2023/06/01 09:39:09;;;;;;;1.13;0.60;;;;;;;22.56;83.43;102274.19;10438474;28;20056;-82
2023/06/01 09:44:21;;;;;;;2.05;1.05;;;;;;;20.84;87.78;102278.25;10451783;28;20056;-84
2023/06/01 09:49:29;;;;;;;0.15;0.15;;;;;;;;;;10469577;28;20594;-84
2023/06/01 09:54:58;;;;;;;0.30;0.30;;;;;;;22.17;85.87;102261.06;10460097;28;20135;-84
2023/06/01 10:00:05;;;;;;;0.98;0.50;;;;;;;22.02;87.30;102254.09;10436167;28;20059;-84
2023/06/01 10:05:09;;;;;;;0.13;0.13;;;;;;;21.79;87.15;102264.56;10450814;28;20140;-84
2023/06/01 10:10:13;;;;;;;0.38;0.38;;;;;;;22.35;85.32;102259.28;10414807;28;20052;-83
2023/06/01 10:15:16;;;;;;;2.47;0.82;;;;;;;22.89;82.76;102250.41;10436687;28;20066;-84
2023/06/01 10:20:36;;;;;;;3.70;0.85;;;;;;;23.59;77.37;102249.19;10440745;28;20571;-83
2023/06/01 10:25:46;;;;;;;0.40;0.22;;;;;;;24.03;79.02;102246.22;10437725;28;20037;-84
2023/06/01 10:31:45;;;;;;;0.22;0.22;;;;;;;22.36;82.88;102247.91;10445762;28;20048;-84
2023/06/01 10:36:53;;;;;;;0.50;0.32;;;;;;;22.76;80.62;102239.94;10267280;28;20505;-84
2023/06/01 10:42:14;;;;;;;0.10;0.10;;;;;;;24.33;81.49;102226.59;10394804;28;20800;-84
2023/06/01 10:47:17;;;;;;;6.45;2.13;;;;;;;23.89;81.21;102225.25;10452550;28;20052;-83
2023/06/01 10:52:35;;;;;;;0.40;0.40;;;;;;;24.97;77.54;102217.94;10462183;28;20075;-83
2023/06/01 10:57:38;;;;;;;6.30;0.77;;;;;;;24.33;78.58;102220.47;10427229;28;20060;-83
2023/06/01 11:02:47;;;;;;;1.05;0.80;;;;;;;26.40;73.88;102205.94;10425681;28;20128;-82
2023/06/01 11:07:49;;;;;;;0.43;0.20;;;;;;;24.18;75.07;102216.22;10428742;28;20076;-83
2023/06/01 11:13:17;;;;;;;0.00;0.00;;;;;;;24.78;77.32;102206.78;10435459;28;20045;-84
2023/06/01 11:18:57;;;;;;;0.67;0.53;;;;;;;25.87;74.98;102204.28;10450896;28;20069;-83
2023/06/01 11:24:01;;;;;;;0.13;0.13;;;;;;;24.90;72.69;102196.09;10452150;28;20111;-84
2023/06/01 11:29:08;;;;;;;1.52;0.55;;;;;;;24.36;71.25;102188.81;10439047;28;20144;-84
2023/06/01 11:34:11;;;;;;;1.38;1.27;;;;;;;24.63;71.62;102190.25;10432265;28;20454;-84
2023/06/01 11:39:28;;;;;;;0.20;0.20;;;;;;;25.72;68.40;102186.94;10447038;28;20059;-84
2023/06/01 11:44:31;;;;;;;0.35;0.20;;;;;;;25.00;70.52;102192.41;10453371;28;20396;-83
2023/06/01 11:49:44;;;;;;;8.77;2.05;;;;;;;25.42;68.31;102180.41;10441631;28;20049;-84
2023/06/01 11:54:47;;;;;;;0.30;0.30;;;;;;;24.84;70.13;102177.69;10439568;28;20118;-84
2023/06/01 11:59:54;;;;;;;1.00;0.93;;;;;;;25.95;68.86;102175.94;10435825;28;20148;-84
2023/06/01 12:05:06;;;;;;;0.35;0.20;;;;;;;26.63;69.07;102164.97;10442850;28;20063;-84
2023/06/01 12:10:10;;;;;;;0.20;0.20;;;;;;;24.86;69.01;102173.28;10452605;28;20144;-85
2023/06/01 12:15:16;;;;;;;0.35;0.25;;;;;;;25.70;65.72;102164.13;10446321;28;20535;-82
2023/06/01 12:20:35;;;;;;;0.52;0.17;;;;;;;24.53;68.54;102164.94;10451474;28;20540;-85
2023/06/01 12:25:37;;;;;;;1.23;1.05;;;;;;;25.86;68.92;102165.59;10452490;28;20126;-83
2023/06/01 12:30:39;;;;;;;2.08;1.75;;;;;;;25.89;67.49;102154.94;10445745;28;20064;-84
2023/06/01 12:35:49;;;;;;;1.40;1.27;;;;;;;25.94;68.36;102155.75;10453877;28;20033;-84
2023/06/01 12:41:11;;;;;;;34.58;3.05;;;;;;;26.28;69.00;102154.25;10457039;28;20080;-85
2023/06/01 12:46:27;;;;;;;0.88;0.80;;;;;;;26.64;66.24;102141.16;10462528;28;20392;-83
2023/06/01 12:51:29;;;;;;;1.60;1.08;;;;;;;25.74;67.87;102153.47;10440670;28;20049;-85
2023/06/01 12:56:31;;;;;;;1.63;0.95;;;;;;;26.11;69.52;102158.09;10446111;28;20053;-84
2023/06/01 13:01:36;;;;;;;1.65;0.85;;;;;;;25.72;64.80;102159.69;10429748;28;20053;-85
2023/06/01 13:06:39;;;;;;;0.75;0.20;;;;;;;25.62;67.58;102158.94;10446641;28;20049;-85
2023/06/01 13:11:41;;;;;;;1.85;0.47;;;;;;;24.74;69.98;102165.56;10460102;28;20048;-85
2023/06/01 13:16:43;;;;;;;0.73;0.50;;;;;;;26.57;68.61;102153.63;10438678;28;20049;-83
2023/06/01 13:21:45;;;;;;;2.50;0.65;;;;;;;25.71;72.46;102152.66;10436490;28;20048;-85
2023/06/01 13:26:47;;;;;;;2.45;1.02;;;;;;;25.13;72.26;102153.56;10450515;28;20052;-85
2023/06/01 13:31:48;;;;;;;0.38;0.30;;;;;;;24.99;74.86;102150.28;10448046;28;20067;-85
2023/06/01 13:36:50;;;;;;;0.52;0.30;;;;;;;25.78;72.95;102141.09;10445450;28;20052;-84
2023/06/01 13:41:53;;;;;;;0.03;0.03;;;;;;;24.65;77.05;102145.44;10446168;28;20511;-85
2023/06/01 13:46:55;;;;;;;0.20;0.20;;;;;;;24.47;82.83;102149.19;10436053;28;20072;-84
2023/06/01 13:51:56;;;;;;;1.90;0.57;;;;;;;25.05;80.88;102141.41;10445480;28;20052;-85
2023/06/01 13:56:58;;;;;;;0.30;0.30;;;;;;;25.53;80.88;102144.16;10445723;28;20044;-85
2023/06/01 14:02:00;;;;;;;0.10;0.10;;;;;;;23.73;83.82;102156.09;10426243;28;20107;-84
2023/06/01 14:07:02;;;;;;;0.73;0.57;;;;;;;23.73;84.98;102162.22;10460252;28;20138;-85
2023/06/01 14:12:04;;;;;;;1.10;0.90;;;;;;;22.96;88.27;102174.16;10428350;28;20123;-85
2023/06/01 14:17:06;;;;;;;0.45;0.45;;;;;;;22.28;91.81;102171.78;10445910;28;20140;-84
2023/06/01 14:22:08;;;;;;;0.68;0.28;;;;;;;22.66;94.84;102167.31;10445331;28;20136;-85
2023/06/01 14:27:10;;;;;;;0.20;0.20;;;;;;;22.06;98.06;102170.09;10449686;28;20051;-85
2023/06/01 14:32:11;;;;;;;1.05;0.40;;;;;;;22.36;95.62;102156.03;10443508;28;20045;-85
2023/06/01 14:37:14;;;;;;;0.77;0.52;;;;;;;22.78;93.85;102155.88;10444384;28;20530;-83
2023/06/01 14:42:17;;;;;;;0.50;0.20;;;;;;;22.44;94.53;102151.66;10449039;28;20375;-85
2023/06/01 14:47:18;;;;;;;0.32;0.32;;;;;;;23.34;90.64;102142.41;10452948;28;20059;-84
2023/06/01 14:52:20;;;;;;;0.30;0.30;;;;;;;21.14;94.01;102149.09;10445105;28;20072;-83
2023/06/01 14:57:22;;;;;;;1.67;1.13;;;;;;;21.31;93.59;102145.63;10459563;28;20053;-85
2023/06/01 15:02:23;;;;;;;1.40;0.98;;;;;;;22.20;91.80;102139.44;10435609;28;20136;-85
2023/06/01 15:07:25;;;;;;;0.73;0.40;;;;;;;21.42;94.08;102143.88;10460629;28;20593;-85
2023/06/01 15:12:27;;;;;;;1.42;0.30;;;;;;;21.51;91.65;102143.03;10443720;28;20045;-84
2023/06/01 15:17:28;;;;;;;0.47;0.13;;;;;;;22.33;89.25;102140.28;10458485;28;20399;-85
2023/06/01 15:22:30;;;;;;;0.47;0.45;;;;;;;21.41;90.36;102144.75;10442826;28;20085;-85
2023/06/01 15:27:32;;;;;;;0.20;0.20;;;;;;;22.00;88.53;102135.13;10454227;28;20052;-85
2023/06/01 15:32:33;;;;;;;0.52;0.47;;;;;;;21.62;87.23;102143.06;10466028;28;20029;-84
2023/06/01 15:37:35;;;;;;;0.10;0.10;;;;;;;21.48;89.93;102143.88;10444608;28;20143;-84
2023/06/01 15:42:37;;;;;;;0.20;0.03;;;;;;;21.80;89.05;102140.41;10439596;28;20045;-84
2023/06/01 15:47:39;;;;;;;0.43;0.30;;;;;;;22.16;86.60;102122.81;10469995;28;20056;-85
2023/06/01 15:52:41;;;;;;;0.10;0.10;;;;;;;22.22;86.02;102107.97;10453125;28;20045;-85
2023/06/01 15:57:42;;;;;;;0.65;0.30;;;;;;;21.75;86.18;102108.06;10432539;28;20060;-83
2023/06/01 16:02:45;;;;;;;0.73;0.70;;;;;;;22.71;84.14;102104.25;10452342;28;20052;-85
2023/06/01 16:07:47;;;;;;;0.30;0.17;;;;;;;22.39;84.76;102103.53;10466037;28;20059;-86
2023/06/01 16:12:49;;;;;;;0.45;0.40;;;;;;;22.44;84.11;102098.25;10438215;28;20060;-84
2023/06/01 16:17:50;;;;;;;3.78;0.40;;;;;;;22.55;84.56;102085.06;10460951;28;20530;-85
2023/06/01 16:22:52;;;;;;;0.70;0.47;;;;;;;21.87;84.22;102083.56;10451236;28;20053;-84
2023/06/01 16:27:54;;;;;;;0.80;0.68;;;;;;;21.86;85.75;102085.28;10449304;28;20506;-85
2023/06/01 16:32:58;;;;;;;0.38;0.10;;;;;;;21.06;87.67;102077.47;10456335;28;20045;-85
2023/06/01 16:37:59;;;;;;;0.10;0.10;;;;;;;22.10;85.81;102065.13;10433020;28;20041;-84
2023/06/01 16:43:01;;;;;;;0.35;0.35;;;;;;;22.91;83.16;102067.31;10432984;28;20420;-85
2023/06/01 16:48:05;;;;;;;0.47;0.47;;;;;;;22.27;84.06;102061.56;10450032;28;20048;-85
2023/06/01 16:53:07;;;;;;;0.38;0.38;;;;;;;22.18;84.36;102063.34;10433353;28;20059;-84
2023/06/01 16:58:10;;;;;;;0.08;0.08;;;;;;;22.18;85.41;102070.34;10451699;28;20045;-86
2023/06/01 17:03:12;;;;;;;2.50;0.68;;;;;;;21.53;87.26;102060.88;10466258;28;20076;-85
2023/06/01 17:08:13;;;;;;;0.70;0.60;;;;;;;22.46;84.57;102067.63;10438627;28;20063;-85
2023/06/01 17:13:15;;;;;;;0.55;0.55;;;;;;;21.21;87.87;102071.38;10432323;28;20052;-85
2023/06/01 17:18:17;;;;;;;0.20;0.20;;;;;;;21.68;86.72;102067.00;10448113;28;20590;-84
2023/06/01 17:23:18;;;;;;;1.60;0.32;;;;;;;21.29;86.05;102068.75;10432464;28;20094;-85
2023/06/01 17:28:20;;;;;;;1.65;0.50;;;;;;;21.62;84.71;102064.38;10458363;28;20056;-86
2023/06/01 17:33:22;;;;;;;0.47;0.30;;;;;;;21.59;83.87;102065.28;10425153;28;20053;-85
2023/06/01 17:38:24;;;;;;;0.20;0.20;;;;;;;21.77;84.20;102059.13;10435133;28;20381;-86
2023/06/01 17:43:26;;;;;;;0.10;0.10;;;;;;;20.59;87.52;102061.63;10448974;28;20148;-87
2023/06/01 17:48:28;;;;;;;0.05;0.05;;;;;;;21.13;87.86;102063.50;10465973;28;20458;-84
2023/06/01 17:53:30;;;;;;;0.20;0.20;;;;;;;19.92;91.08;102063.13;10449699;28;20129;-85
2023/06/01 17:58:42;;;;;;;0.00;0.00;;;;;;;20.11;90.64;102061.47;10458184;28;20135;-85
2023/06/01 18:03:43;;;;;;;2.30;0.30;;;;;;;19.71;90.49;102065.56;10464350;28;20404;-85
2023/06/01 18:08:47;;;;;;;2.17;0.63;;;;;;;19.26;91.65;102073.97;10443952;28;20462;-85
2023/06/01 18:13:51;;;;;;;0.38;0.38;;;;;;;19.64;91.83;102072.53;10447109;28;20036;-85
2023/06/01 18:18:53;;;;;;;0.35;0.35;;;;;;;19.08;94.33;102076.44;10448063;28;20500;-86
2023/06/01 18:23:55;;;;;;;0.00;0.00;;;;;;;18.98;94.59;102081.56;10434800;28;20045;-85
2023/06/01 18:29:00;;;;;;;0.70;0.32;;;;;;;19.63;92.62;102084.69;10432219;28;20036;-85
2023/06/01 18:34:01;;;;;;;0.00;0.00;;;;;;;19.27;94.51;102094.00;10450623;28;20047;-85
2023/06/01 18:39:03;;;;;;;3.38;0.32;;;;;;;18.85;96.32;102097.94;10458703;28;20488;-85
2023/06/01 18:44:05;;;;;;;0.15;0.13;;;;;;;18.90;95.92;102088.41;10437091;28;20053;-85
2023/06/01 18:49:07;;;;;;;0.15;0.13;;;;;;;18.82;95.37;102084.84;10450098;28;20057;-85
2023/06/01 18:54:09;;;;;;;0.25;0.25;;;;;;;18.44;94.15;102090.50;10446638;28;20048;-84
2023/06/01 18:59:10;;;;;;;0.45;0.28;;;;;;;18.27;95.68;102080.75;10439134;28;20048;-85
2023/06/01 19:04:12;;;;;;;1.02;0.40;;;;;;;18.77;93.47;102091.75;10463918;28;20151;-84
2023/06/01 19:09:16;;;;;;;0.30;0.20;;;;;;;19.00;94.01;102095.50;10456204;28;20113;-84
2023/06/01 19:14:17;;;;;;;0.40;0.25;;;;;;;18.48;94.29;102100.13;10454336;28;20079;-86
2023/06/01 19:19:23;;;;;;;1.92;0.10;;;;;;;19.15;92.76;102088.69;10439505;28;20049;-85
2023/06/01 19:24:25;;;;;;;0.00;0.00;;;;;;;18.24;93.47;102096.34;10453780;28;20056;-85
2023/06/01 19:29:28;;;;;;;0.25;0.10;;;;;;;18.86;92.40;102097.06;10459572;28;20094;-84
2023/06/01 19:34:30;;;;;;;3.92;0.75;;;;;;;18.59;92.93;102097.63;10442382;28;20049;-84
2023/06/01 19:39:38;;;;;;;0.03;0.03;;;;;;;18.45;93.41;102097.47;10462162;28;20049;-85
2023/06/01 19:44:40;;;;;;;0.00;0.00;;;;;;;18.44;94.14;102094.00;10451589;28;20041;-84
2023/06/01 19:49:41;;;;;;;1.35;0.65;;;;;;;18.38;93.15;102094.78;10461533;28;20579;-85
2023/06/01 19:54:43;;;;;;;0.47;0.32;;;;;;;18.79;91.00;102101.34;10436647;28;20086;-85
2023/06/01 19:59:45;;;;;;;0.00;0.00;;;;;;;18.30;93.43;102112.06;10452433;28;20052;-85
2023/06/01 20:04:46;;;;;;;0.10;0.10;;;;;;;18.10;93.18;102105.72;10457268;28;20045;-85
2023/06/01 20:09:49;;;;;;;0.10;0.10;;;;;;;18.20;92.91;102110.22;10464347;28;20511;-84
2023/06/01 20:14:51;;;;;;;0.85;0.20;;;;;;;18.06;94.62;102104.78;10454717;28;20059;-85
2023/06/01 20:19:53;;;;;;;0.00;0.00;;;;;;;18.49;93.49;102114.94;10452732;28;20064;-85
2023/06/01 20:24:54;;;;;;;0.47;0.45;;;;;;;17.76;95.97;102119.97;10462123;28;20040;-85
2023/06/01 20:29:56;;;;;;;0.00;0.00;;;;;;;18.12;95.41;102117.91;10451894;28;20044;-86
2023/06/01 20:34:58;;;;;;;0.57;0.22;;;;;;;18.30;95.25;102116.41;10449461;28;20570;-84
2023/06/01 20:39:59;;;;;;;1.25;0.38;;;;;;;18.16;93.70;102113.63;10446063;28;20049;-85
2023/06/01 20:45:03;;;;;;;0.45;0.43;;;;;;;18.28;93.34;102116.38;10443158;28;20041;-84
2023/06/01 20:50:05;;;;;;;0.10;0.10;;;;;;;17.82;94.19;102124.41;10432930;28;20037;-84
2023/06/01 20:55:07;;;;;;;0.10;0.05;;;;;;;17.99;93.44;102111.63;10466080;28;20051;-84
2023/06/01 21:00:12;;;;;;;0.38;0.35;;;;;;;18.00;94.14;102118.63;10454835;28;20057;-84
2023/06/01 21:05:14;;;;;;;0.25;0.17;;;;;;;18.19;93.77;102113.66;10450059;28;20045;-84
2023/06/01 21:10:15;;;;;;;0.73;0.30;;;;;;;17.61;95.53;102119.72;10450895;28;20123;-85
2023/06/01 21:15:17;;;;;;;0.10;0.10;;;;;;;17.51;96.08;102128.25;10423223;28;20048;-84
2023/06/01 21:20:19;;;;;;;0.60;0.60;;;;;;;17.43;97.23;102118.59;10425237;28;20049;-84
2023/06/01 21:25:20;;;;;;;0.00;0.00;;;;;;;17.44;97.79;102125.56;10425068;28;20534;-85
2023/06/01 21:30:22;;;;;;;3.00;0.65;;;;;;;16.88;98.60;102126.25;10452497;28;21081;-85
2023/06/01 21:35:24;;;;;;;0.00;0.00;;;;;;;17.29;95.68;102135.69;10448963;28;20399;-84
2023/06/01 21:40:25;;;;;;;0.00;0.00;;;;;;;17.34;95.64;102136.66;10465208;28;20048;-85
2023/06/01 21:45:27;;;;;;;0.38;0.17;;;;;;;17.82;93.88;102137.44;10463080;28;20122;-84
2023/06/01 21:50:29;;;;;;;0.00;0.00;;;;;;;17.74;94.88;102139.03;10456777;28;20052;-84
2023/06/01 21:55:31;;;;;;;0.00;0.00;;;;;;;17.61;94.84;102135.34;10432956;28;20033;-84
2023/06/01 22:00:33;;;;;;;0.43;0.43;;;;;;;17.26;96.40;102143.44;10448862;28;20430;-84
2023/06/01 22:05:35;;;;;;;2.30;1.80;;;;;;;16.65;98.09;102138.78;10427599;28;20045;-84
2023/06/01 22:10:37;;;;;;;0.30;0.20;;;;;;;17.34;95.91;102134.03;10429559;28;20060;-84
2023/06/01 22:15:39;;;;;;;0.08;0.08;;;;;;;16.84;98.04;102139.16;10449058;28;20496;-85
2023/06/01 22:20:41;;;;;;;4.38;1.77;;;;;;;16.81;96.56;102133.03;10459301;28;20069;-84
2023/06/01 22:25:43;;;;;;;0.10;0.10;;;;;;;16.46;98.05;102141.00;10434670;28;20037;-84
2023/06/01 22:30:44;;;;;;;0.10;0.10;;;;;;;16.54;96.29;102142.91;10446715;28;20399;-83
2023/06/01 22:35:46;;;;;;;1.15;0.08;;;;;;;16.71;95.15;102135.44;10431131;28;20041;-84
2023/06/01 22:40:47;;;;;;;0.00;0.00;;;;;;;16.94;93.01;102138.53;10446053;28;20500;-84
2023/06/01 22:45:49;;;;;;;0.45;0.38;;;;;;;16.66;94.81;102140.53;10456738;28;20494;-82
2023/06/01 22:50:52;;;;;;;0.00;0.00;;;;;;;16.44;94.56;102145.28;10453486;28;20104;-84
2023/06/01 22:55:54;;;;;;;0.55;0.30;;;;;;;16.67;93.79;102144.03;10451875;28;20037;-83
2023/06/01 23:00:56;;;;;;;1.48;0.52;;;;;;;16.13;95.19;102146.34;10436951;28;20128;-86
2023/06/01 23:05:57;;;;;;;0.10;0.10;;;;;;;16.30;95.09;102157.13;10430237;28;20041;-83
2023/06/01 23:11:00;;;;;;;0.52;0.15;;;;;;;16.40;94.53;102159.09;10429252;28;20054;-84